createdAt,value
2018-04-14T00:00:45.881Z,118.90
2018-04-14T00:03:13.320Z,120.43
2018-04-14T00:05:40.778Z,126.30
2018-04-14T00:08:08.205Z,119.43
2018-04-14T00:10:36.416Z,121.17
2018-04-14T00:13:03.860Z,123.37
2018-04-14T00:15:31.307Z,125.13
2018-04-14T00:17:59.507Z,132.60
2018-04-14T00:20:26.955Z,125.00
2018-04-14T00:22:54.381Z,127.60
2018-04-14T00:25:22.596Z,130.60
2018-04-14T00:27:50.042Z,128.87
2018-04-14T00:30:17.480Z,128.50
2018-04-14T00:32:44.918Z,128.10
2018-04-14T00:35:13.124Z,127.40
2018-04-14T00:37:40.558Z,130.27
2018-04-14T00:40:08.764Z,134.77
2018-04-14T00:42:36.199Z,131.20
2018-04-14T00:45:03.647Z,124.37
2018-04-14T00:47:31.080Z,122.37
2018-04-14T00:49:59.294Z,126.73
2018-04-14T00:52:26.728Z,125.47
2018-04-14T00:54:54.173Z,124.00
2018-04-14T00:57:22.384Z,126.00
2018-04-14T00:59:49.830Z,125.03
2018-04-14T01:02:17.268Z,127.40
2018-04-14T01:04:44.712Z,126.47
2018-04-14T01:07:12.921Z,115.97
2018-04-14T01:09:40.415Z,118.20
2018-04-14T01:12:07.842Z,113.00
2018-04-14T01:14:35.285Z,115.20
2018-04-14T01:17:03.053Z,120.80
2018-04-14T01:19:30.506Z,112.20
2018-04-14T01:21:57.964Z,117.53
2018-04-14T01:24:25.388Z,108.57
2018-04-14T01:26:53.597Z,109.13
2018-04-14T01:29:21.045Z,114.77
2018-04-14T01:31:48.490Z,110.53
2018-04-14T01:34:15.929Z,108.77
2018-04-14T01:36:44.121Z,108.80
2018-04-14T01:39:11.564Z,104.67
2018-04-14T01:41:39.756Z,106.17
2018-04-14T01:44:07.201Z,100.93
2018-04-14T01:46:34.641Z,98.97
2018-04-14T01:49:02.832Z,101.23
2018-04-14T01:51:30.268Z,97.93
2018-04-14T01:53:58.473Z,89.83
2018-04-14T01:56:25.912Z,88.73
2018-04-14T01:58:53.348Z,91.23
2018-04-14T02:01:21.556Z,93.37
2018-04-14T02:03:48.980Z,87.13
2018-04-14T02:06:17.182Z,92.53
2018-04-14T02:08:44.631Z,87.73
2018-04-14T02:11:12.084Z,85.93
2018-04-14T02:13:39.513Z,90.20
2018-04-14T02:16:07.729Z,91.70
2018-04-14T02:18:35.166Z,83.87
2018-04-14T02:21:02.602Z,89.40
2018-04-14T02:23:30.801Z,92.30
2018-04-14T02:25:58.236Z,80.90
2018-04-14T02:28:26.440Z,81.43
2018-04-14T02:30:53.878Z,80.43
2018-04-14T02:33:21.342Z,78.33
2018-04-14T02:35:48.787Z,77.83
2018-04-14T02:38:16.232Z,77.53
2018-04-14T02:40:44.457Z,73.70
2018-04-14T02:43:11.899Z,71.43
2018-04-14T02:45:39.329Z,72.93
2018-04-14T02:48:06.781Z,77.30
2018-04-14T02:50:34.222Z,76.73
2018-04-14T02:53:02.422Z,75.97
2018-04-14T02:55:29.867Z,76.93
2018-04-14T02:57:58.061Z,76.07
2018-04-14T03:00:25.510Z,75.67
2018-04-14T03:02:52.940Z,78.67
2018-04-14T03:05:21.145Z,74.83
2018-04-14T03:07:48.591Z,76.67
2018-04-14T03:10:16.553Z,72.97
2018-04-14T03:12:43.986Z,75.53
2018-04-14T03:15:11.412Z,79.93
2018-04-14T03:17:38.854Z,80.17
2018-04-14T03:20:06.312Z,76.97
2018-04-14T03:22:33.740Z,74.93
2018-04-14T03:25:01.172Z,76.27
2018-04-14T03:27:29.379Z,78.40
2018-04-14T03:29:56.810Z,79.90
2018-04-14T03:32:24.249Z,85.90
2018-04-14T03:34:52.447Z,78.47
2018-04-14T03:37:19.876Z,79.67
2018-04-14T03:39:48.100Z,77.73
2018-04-14T03:42:15.537Z,81.57
2018-04-14T03:44:42.973Z,79.47
2018-04-14T03:47:10.411Z,75.93
2018-04-14T03:49:38.616Z,79.13
2018-04-14T03:52:06.577Z,74.60
2018-04-14T03:54:34.847Z,80.23
2018-04-14T03:57:02.279Z,79.10
2018-04-14T03:59:30.480Z,74.23
2018-04-14T04:01:57.921Z,79.20
2018-04-14T04:04:26.119Z,72.93
2018-04-14T04:06:53.551Z,73.70
2018-04-14T04:09:22.387Z,72.10
2018-04-14T04:11:49.824Z,75.17
2018-04-14T04:14:17.252Z,80.87
2018-04-14T04:16:45.460Z,78.50
2018-04-14T04:19:24.748Z,73.37
2018-04-14T04:22:04.792Z,77.30
2018-04-14T04:24:44.094Z,78.20
2018-04-14T04:27:11.527Z,80.03
2018-04-14T04:29:38.960Z,77.67
2018-04-14T04:32:06.415Z,84.27
2018-04-14T04:34:34.615Z,79.50
2018-04-14T04:37:02.046Z,77.03
2018-04-14T04:39:29.476Z,86.00
2018-04-14T04:41:56.920Z,81.53
2018-04-14T04:44:24.348Z,80.60
2018-04-14T04:46:51.787Z,85.07
2018-04-14T04:49:19.217Z,78.90
2018-04-14T04:51:46.656Z,86.90
2018-04-14T04:54:14.855Z,89.47
2018-04-14T04:56:42.305Z,81.40
2018-04-14T04:59:09.737Z,87.17
2018-04-14T05:01:37.941Z,82.00
2018-04-14T05:04:05.368Z,83.63
2018-04-14T05:06:33.578Z,73.67
2018-04-14T05:09:01.004Z,80.17
2018-04-14T05:11:29.212Z,80.63
2018-04-14T05:13:57.584Z,77.97
2018-04-14T05:16:25.028Z,85.77
2018-04-14T05:18:52.456Z,88.47
2018-04-14T05:21:19.904Z,78.80
2018-04-14T05:23:47.328Z,79.17
2018-04-14T05:26:14.762Z,74.40
2018-04-14T05:28:42.195Z,81.07
2018-04-14T05:31:09.643Z,76.03
2018-04-14T05:33:37.837Z,74.90
2018-04-14T05:36:05.264Z,74.37
2018-04-14T05:38:33.495Z,75.03
2018-04-14T05:41:01.852Z,74.23
2018-04-14T05:43:29.300Z,80.17
2018-04-14T05:45:56.754Z,76.77
2018-04-14T05:48:24.201Z,77.07
2018-04-14T05:50:51.651Z,73.57
2018-04-14T05:53:19.854Z,73.40
2018-04-14T05:55:47.285Z,80.27
2018-04-14T05:58:14.728Z,76.57
2018-04-14T06:00:42.932Z,71.73
2018-04-14T06:03:10.372Z,73.70
2018-04-14T06:05:37.808Z,71.30
2018-04-14T06:08:06.024Z,76.77
2018-04-14T06:10:33.448Z,66.40
2018-04-14T06:13:00.899Z,67.80
2018-04-14T06:15:29.106Z,69.63
2018-04-14T06:17:56.533Z,65.23
2018-04-14T06:20:24.735Z,69.63
2018-04-14T06:22:52.167Z,69.17
2018-04-14T06:25:19.608Z,65.07
2018-04-14T06:27:47.813Z,69.53
2018-04-14T06:30:15.248Z,66.37
2018-04-14T06:32:42.688Z,70.13
2018-04-14T06:35:10.882Z,64.90
2018-04-14T06:37:38.326Z,65.63
2018-04-14T06:40:06.528Z,66.20
2018-04-14T06:42:34.883Z,61.83
2018-04-14T06:45:02.324Z,62.40
2018-04-14T06:47:30.536Z,56.17
2018-04-14T06:49:57.974Z,60.17
2018-04-14T06:52:25.412Z,57.00
2018-04-14T06:54:53.600Z,58.67
2018-04-14T06:57:21.056Z,58.07
2018-04-14T06:59:48.504Z,55.23
2018-04-14T07:02:15.964Z,59.47
2018-04-14T07:04:43.396Z,54.87
2018-04-14T07:07:10.829Z,54.83
2018-04-14T07:09:38.286Z,53.80
2018-04-14T07:12:05.716Z,54.87
2018-04-14T07:14:33.168Z,56.07
2018-04-14T07:17:00.604Z,57.27
2018-04-14T07:19:28.053Z,55.30
2018-04-14T07:21:55.493Z,56.67
2018-04-14T07:24:22.939Z,60.13
2018-04-14T07:26:50.377Z,50.27
2018-04-14T07:29:17.812Z,53.37
2018-04-14T07:31:45.252Z,56.87
2018-04-14T07:34:12.685Z,55.23
2018-04-14T07:36:40.884Z,57.80
2018-04-14T07:39:08.316Z,53.67
2018-04-14T07:41:35.775Z,52.90
2018-04-14T07:44:03.223Z,54.60
2018-04-14T07:46:31.421Z,53.77
2018-04-14T07:48:58.872Z,57.70
2018-04-14T07:51:26.295Z,52.27
2018-04-14T07:53:54.501Z,53.37
2018-04-14T07:56:21.961Z,55.90
2018-04-14T07:58:49.391Z,53.60
2018-04-14T08:01:16.832Z,53.03
2018-04-14T08:03:45.047Z,55.17
2018-04-14T08:06:12.561Z,54.63
2018-04-14T08:08:39.957Z,59.43
2018-04-14T08:11:07.392Z,57.83
2018-04-14T08:13:34.872Z,60.20
2018-04-14T08:16:02.299Z,57.47
2018-04-14T08:18:30.504Z,58.80
2018-04-14T08:20:57.951Z,59.70
2018-04-14T08:23:25.379Z,57.03
2018-04-14T08:25:53.589Z,60.47
2018-04-14T08:28:21.020Z,59.07
2018-04-14T08:30:48.466Z,58.77
2018-04-14T08:33:16.667Z,60.20
2018-04-14T08:35:44.123Z,59.00
2018-04-14T08:38:11.560Z,59.53
2018-04-14T08:40:38.984Z,62.33
2018-04-14T08:43:06.416Z,58.00
2018-04-14T08:45:33.861Z,63.10
2018-04-14T08:48:01.297Z,55.57
2018-04-14T08:50:28.731Z,61.60
2018-04-14T08:52:56.163Z,62.30
2018-04-14T08:55:24.382Z,54.83
2018-04-14T08:57:51.856Z,56.97
2018-04-14T09:00:19.297Z,55.73
2018-04-14T09:02:46.717Z,59.50
2018-04-14T09:05:14.937Z,56.57
2018-04-14T09:07:42.368Z,57.30
2018-04-14T09:10:09.804Z,58.10
2018-04-14T09:12:38.019Z,55.87
2018-04-14T09:15:20.237Z,60.00
2018-04-14T09:17:47.676Z,55.87
2018-04-14T09:20:15.115Z,55.63
2018-04-14T09:22:42.545Z,55.50
2018-04-14T09:25:10.759Z,54.70
2018-04-14T09:27:38.193Z,54.97
2018-04-14T09:30:05.629Z,56.83
2018-04-14T09:32:33.833Z,52.17
2018-04-14T09:35:01.262Z,55.73
2018-04-14T09:37:29.458Z,52.43
2018-04-14T09:39:56.900Z,53.17
2018-04-14T09:42:24.334Z,54.17
2018-04-14T09:44:52.538Z,51.63
2018-04-14T09:47:19.980Z,55.90
2018-04-14T09:49:47.433Z,51.10
2018-04-14T09:52:15.633Z,49.77
2018-04-14T09:54:43.072Z,54.77
2018-04-14T09:57:10.505Z,53.80
2018-04-14T09:59:38.732Z,49.93
2018-04-14T10:02:06.154Z,49.63
2018-04-14T10:04:33.609Z,46.40
2018-04-14T10:07:01.169Z,52.33
2018-04-14T10:09:28.609Z,48.50
2018-04-14T10:11:56.824Z,49.40
2018-04-14T10:14:24.260Z,53.20
2018-04-14T10:16:51.695Z,49.53
2018-04-14T10:19:19.897Z,50.07
2018-04-14T10:21:47.333Z,47.87
2018-04-14T10:24:14.792Z,53.80
2018-04-14T10:26:42.980Z,52.50
2018-04-14T10:29:10.427Z,48.53
2018-04-14T10:31:37.864Z,49.87
2018-04-14T10:34:06.064Z,51.83
2018-04-14T10:36:33.508Z,52.47
2018-04-14T10:39:00.949Z,52.90
2018-04-14T10:41:29.178Z,50.87
2018-04-14T10:43:56.617Z,52.73
2018-04-14T10:46:24.049Z,51.80
2018-04-14T10:48:51.484Z,53.37
2018-04-14T10:51:19.686Z,55.30
2018-04-14T10:53:47.126Z,55.10
2018-04-14T10:56:14.580Z,54.20
2018-04-14T10:58:42.023Z,52.83
2018-04-14T11:01:10.227Z,53.03
2018-04-14T11:03:37.652Z,52.33
2018-04-14T11:06:05.859Z,51.63
2018-04-14T11:08:33.332Z,51.73
2018-04-14T11:11:00.776Z,53.73
2018-04-14T11:13:28.229Z,53.53
2018-04-14T11:15:55.670Z,55.67
2018-04-14T11:18:23.102Z,53.30
2018-04-14T11:20:51.321Z,56.53
2018-04-14T11:23:18.765Z,54.27
2018-04-14T11:25:46.196Z,56.87
2018-04-14T11:28:14.392Z,55.67
2018-04-14T11:30:42.244Z,56.50
2018-04-14T11:33:09.671Z,55.47
2018-04-14T11:35:37.873Z,54.73
2018-04-14T11:38:05.300Z,53.10
2018-04-14T11:40:33.515Z,53.70
2018-04-14T11:43:00.941Z,54.93
2018-04-14T11:45:29.152Z,50.40
2018-04-14T11:47:56.580Z,60.30
2018-04-14T11:50:24.029Z,53.33
2018-04-14T11:52:52.218Z,51.47
2018-04-14T11:55:19.674Z,55.63
2018-04-14T11:57:47.096Z,54.80
2018-04-14T12:00:14.540Z,51.90
2018-04-14T12:02:41.975Z,51.80
2018-04-14T12:05:09.418Z,54.87
2018-04-14T12:07:36.861Z,48.33
2018-04-14T12:10:04.276Z,53.20
2018-04-14T12:12:32.491Z,47.93
2018-04-14T12:14:59.929Z,54.07
2018-04-14T12:17:27.363Z,55.93
2018-04-14T12:19:55.564Z,51.20
2018-04-14T12:22:23.053Z,51.20
2018-04-14T12:24:50.501Z,55.53
2018-04-14T12:27:17.948Z,54.97
2018-04-14T12:29:45.376Z,52.73
2018-04-14T12:32:13.379Z,53.53
2018-04-14T12:34:40.821Z,53.07
2018-04-14T12:37:08.266Z,54.57
2018-04-14T12:39:35.728Z,57.03
2018-04-14T12:42:03.157Z,54.50
2018-04-14T12:44:31.372Z,53.33
2018-04-14T12:46:58.823Z,55.73
2018-04-14T12:49:26.249Z,57.90
2018-04-14T12:51:53.716Z,58.33
2018-04-14T12:54:21.148Z,53.57
2018-04-14T12:56:49.385Z,55.13
2018-04-14T12:59:16.801Z,52.93
2018-04-14T13:01:44.236Z,54.53
2018-04-14T13:04:12.438Z,57.90
2018-04-14T13:06:39.864Z,54.57
2018-04-14T13:09:08.059Z,60.57
2018-04-14T13:11:35.504Z,59.17
2018-04-14T13:14:02.943Z,59.63
2018-04-14T13:16:31.147Z,57.60
2018-04-14T13:18:58.590Z,60.53
2018-04-14T13:21:26.803Z,62.13
2018-04-14T13:23:54.240Z,56.73
2018-04-14T13:26:21.687Z,58.60
2018-04-14T13:28:49.121Z,63.50
2018-04-14T13:31:17.324Z,60.43
2018-04-14T13:33:44.770Z,60.83
2018-04-14T13:36:12.197Z,58.93
2018-04-14T13:38:40.396Z,61.73
2018-04-14T13:41:07.861Z,58.13
2018-04-14T13:43:35.298Z,60.73
2018-04-14T13:46:04.902Z,57.43
2018-04-14T13:48:32.337Z,55.40
2018-04-14T13:50:59.770Z,58.47
2018-04-14T13:53:27.212Z,59.60
2018-04-14T13:55:55.444Z,58.60
2018-04-14T13:58:23.634Z,55.13
2018-04-14T14:00:51.060Z,59.83
2018-04-14T14:03:19.268Z,56.07
2018-04-14T14:05:46.706Z,59.33
2018-04-14T14:08:14.137Z,55.50
2018-04-14T14:10:43.133Z,54.93
2018-04-14T14:13:11.341Z,60.00
2018-04-14T14:15:38.783Z,59.83
2018-04-14T14:18:06.218Z,59.47
2018-04-14T14:20:34.435Z,56.90
2018-04-14T14:23:01.860Z,62.23
2018-04-14T14:25:29.296Z,60.53
2018-04-14T14:27:57.496Z,60.43
2018-04-14T14:30:24.933Z,57.33
2018-04-14T14:32:53.136Z,60.13
2018-04-14T14:35:20.596Z,56.13
2018-04-14T14:37:48.024Z,54.67
2018-04-14T14:40:15.467Z,58.90
2018-04-14T14:42:43.759Z,58.83
2018-04-14T14:45:11.115Z,58.23
2018-04-14T14:47:38.557Z,62.70
2018-04-14T14:50:12.364Z,60.13
2018-04-14T14:52:40.566Z,59.10
2018-04-14T14:55:07.988Z,59.40
2018-04-14T14:57:36.196Z,58.93
2018-04-14T15:00:03.641Z,58.77
2018-04-14T15:02:31.093Z,57.70
2018-04-14T15:04:59.323Z,63.33
2018-04-14T15:07:26.725Z,56.87
2018-04-14T15:09:54.156Z,59.37
2018-04-14T15:12:22.362Z,60.70
2018-04-14T15:14:49.796Z,55.93
2018-04-14T15:17:18.018Z,56.93
2018-04-14T15:19:45.442Z,59.17
2018-04-14T15:22:12.882Z,58.00
2018-04-14T15:24:41.078Z,65.80
2018-04-14T15:27:08.515Z,59.43
2018-04-14T15:29:35.956Z,58.27
2018-04-14T15:32:04.164Z,57.37
2018-04-14T15:34:31.675Z,60.37
2018-04-14T15:36:59.040Z,58.90
2018-04-14T15:39:27.241Z,59.90
2018-04-14T15:41:54.668Z,56.10
2018-04-14T15:44:22.873Z,56.40
2018-04-14T15:46:50.312Z,59.33
2018-04-14T15:49:17.788Z,55.87
2018-04-14T15:51:46.756Z,57.90
2018-04-14T15:54:14.207Z,59.67
2018-04-14T15:56:42.400Z,60.97
2018-04-14T15:59:09.837Z,59.17
2018-04-14T16:01:37.279Z,59.33
2018-04-14T16:04:09.788Z,62.00
2018-04-14T16:06:32.929Z,58.77
2018-04-14T16:09:00.377Z,59.77
2018-04-14T16:11:27.819Z,57.33
2018-04-14T16:13:56.021Z,61.73
2018-04-14T16:16:23.452Z,56.57
2018-04-14T16:18:51.665Z,58.87
2018-04-14T16:21:19.111Z,60.53
2018-04-14T16:23:46.552Z,59.30
2018-04-14T16:26:13.992Z,57.73
2018-04-14T16:28:42.198Z,60.80
2018-04-14T16:31:09.633Z,59.37
2018-04-14T16:33:37.078Z,57.07
2018-04-14T16:36:05.280Z,59.23
2018-04-14T16:38:32.706Z,60.27
2018-04-14T16:41:00.907Z,58.13
2018-04-14T16:43:28.361Z,55.77
2018-04-14T16:45:55.792Z,56.83
2018-04-14T16:48:24.008Z,61.77
2018-04-14T16:50:51.436Z,61.90
2018-04-14T16:53:18.881Z,57.77
2018-04-14T16:55:47.068Z,58.43
2018-04-14T16:58:14.524Z,60.50
2018-04-14T17:00:42.521Z,54.93
2018-04-14T17:03:09.968Z,59.57
2018-04-14T17:05:37.409Z,60.27
2018-04-14T17:08:04.848Z,57.33
2018-04-14T17:10:32.296Z,57.77
2018-04-14T17:13:00.511Z,57.97
2018-04-14T17:15:28.604Z,55.60
2018-04-14T17:17:56.065Z,60.30
2018-04-14T17:20:23.514Z,56.57
2018-04-14T17:22:51.041Z,56.67
2018-04-14T17:25:18.499Z,54.37
2018-04-14T17:27:45.907Z,53.87
2018-04-14T17:30:14.112Z,60.07
2018-04-14T17:32:41.536Z,61.37
2018-04-14T17:35:09.756Z,56.57
2018-04-14T17:37:37.188Z,58.30
2018-04-14T17:40:04.625Z,62.73
2018-04-14T17:42:32.826Z,56.90
2018-04-14T17:45:00.264Z,55.40
2018-04-14T17:47:28.477Z,58.07
2018-04-14T17:49:55.913Z,57.23
2018-04-14T17:52:23.360Z,54.30
2018-04-14T17:54:50.805Z,60.40
2018-04-14T17:57:19.003Z,54.60
2018-04-14T17:59:46.444Z,57.23
2018-04-14T18:02:13.876Z,60.60
2018-04-14T18:04:42.072Z,57.13
2018-04-14T18:07:09.506Z,56.17
2018-04-14T18:09:37.779Z,56.40
2018-04-14T18:12:05.162Z,59.77
2018-04-14T18:14:32.592Z,55.50
2018-04-14T18:17:00.799Z,59.43
2018-04-14T18:19:28.244Z,56.03
2018-04-14T18:21:55.672Z,55.50
2018-04-14T18:24:23.899Z,53.17
2018-04-14T18:26:51.320Z,55.00
2018-04-14T18:29:18.767Z,54.97
2018-04-14T18:31:46.963Z,57.03
2018-04-14T18:34:14.402Z,53.27
2018-04-14T18:36:42.604Z,49.20
2018-04-14T18:39:10.054Z,51.40
2018-04-14T18:41:37.492Z,54.63
2018-04-14T18:44:04.956Z,52.73
2018-04-14T18:46:32.395Z,52.93
2018-04-14T18:51:22.030Z,57.23
2018-04-14T18:53:49.010Z,50.50
2018-04-14T18:56:16.416Z,55.63
2018-04-14T18:58:43.855Z,52.43
2018-04-14T19:01:11.297Z,53.27
2018-04-14T19:03:38.732Z,53.97
2018-04-14T19:06:06.937Z,49.87
2018-04-14T19:08:34.369Z,54.43
2018-04-14T19:11:02.581Z,49.73
2018-04-14T19:13:30.061Z,57.47
2018-04-14T19:15:58.280Z,57.33
2018-04-14T19:18:26.478Z,54.10
2018-04-14T19:20:53.949Z,52.17
2018-04-14T19:23:21.358Z,54.33
2018-04-14T19:25:49.572Z,53.47
2018-04-14T19:28:17.021Z,54.93
2018-04-14T19:30:44.445Z,50.90
2018-04-14T19:33:12.652Z,50.43
2018-04-14T19:35:40.092Z,55.37
2018-04-14T19:38:07.536Z,57.77
2018-04-14T19:40:35.748Z,52.27
2018-04-14T19:43:03.215Z,55.03
2018-04-14T19:45:30.645Z,56.90
2018-04-14T19:47:58.099Z,54.30
2018-04-14T19:50:25.534Z,52.83
2018-04-14T19:52:53.729Z,52.43
2018-04-14T19:55:21.172Z,48.60
2018-04-14T19:57:48.608Z,48.47
2018-04-14T20:00:16.836Z,52.00
2018-04-14T20:02:44.272Z,56.80
2018-04-14T20:05:11.721Z,54.23
2018-04-14T20:07:39.163Z,53.50
2018-04-14T20:10:07.364Z,55.57
2018-04-14T20:12:34.800Z,51.03
2018-04-14T20:15:02.232Z,52.57
2018-04-14T20:17:30.448Z,54.37
2018-04-14T20:19:57.884Z,58.47
2018-04-14T20:22:25.412Z,53.53
2018-04-14T20:24:53.619Z,52.67
2018-04-14T20:27:21.059Z,60.20
2018-04-14T20:29:49.254Z,56.43
2018-04-14T20:32:16.685Z,57.67
2018-04-14T20:34:44.130Z,55.53
2018-04-14T20:37:12.362Z,55.87
2018-04-14T20:39:39.778Z,56.17
2018-04-14T20:42:07.208Z,53.57
2018-04-14T20:44:35.413Z,53.10
2018-04-14T20:47:02.853Z,61.87
2018-04-14T20:49:31.052Z,57.57
2018-04-14T20:51:58.498Z,54.73
2018-04-14T20:54:25.938Z,62.30
2018-04-14T20:56:54.134Z,61.83
2018-04-14T20:59:21.572Z,61.17
2018-04-14T21:01:49.015Z,59.00
2018-04-14T21:04:17.217Z,62.73
2018-04-14T21:06:44.668Z,66.60
2018-04-14T21:09:12.098Z,64.63
2018-04-14T21:11:40.307Z,61.23
2018-04-14T21:14:07.736Z,59.97
2018-04-14T21:16:35.942Z,60.47
2018-04-14T21:19:03.384Z,66.93
2018-04-14T21:21:30.812Z,62.63
2018-04-14T21:23:59.018Z,61.10
2018-04-14T21:26:26.471Z,63.13
2018-04-14T21:28:53.899Z,63.27
2018-04-14T21:31:22.104Z,63.73
2018-04-14T21:33:49.557Z,63.17
2018-04-14T21:36:16.994Z,59.43
2018-04-14T21:38:44.428Z,62.63
2018-04-14T21:41:12.752Z,63.97
2018-04-14T21:43:40.928Z,68.13
2018-04-14T21:46:08.360Z,61.80
2018-04-14T21:48:35.785Z,64.90
2018-04-14T21:51:04.020Z,63.43
2018-04-14T21:53:31.460Z,61.17
2018-04-14T21:55:58.900Z,63.03
2018-04-14T21:58:27.028Z,64.53
2018-04-14T22:00:54.460Z,59.73
2018-04-14T22:03:21.909Z,56.83
2018-04-14T22:05:49.379Z,61.57
2018-04-14T22:08:16.841Z,64.97
2018-04-14T22:10:44.268Z,62.90
2018-04-14T22:13:11.722Z,58.60
2018-04-14T22:15:39.164Z,61.57
2018-04-14T22:18:06.617Z,58.93
2018-04-14T22:20:34.064Z,63.90
2018-04-14T22:23:02.705Z,64.10
2018-04-14T22:25:30.140Z,60.17
2018-04-14T22:27:57.578Z,60.07
2018-04-14T22:30:25.014Z,61.03
2018-04-14T22:32:52.448Z,59.87
2018-04-14T22:35:20.661Z,56.43
2018-04-14T22:37:48.133Z,58.87
2018-04-14T22:40:15.573Z,62.43
2018-04-14T22:42:43.014Z,59.53
2018-04-14T22:45:10.446Z,64.93
2018-04-14T22:47:38.656Z,58.47
2018-04-14T22:50:06.090Z,60.23
2018-04-14T22:52:34.320Z,64.33
2018-04-14T22:55:01.731Z,63.87
2018-04-14T22:57:29.160Z,62.83
2018-04-14T22:59:57.357Z,66.10
2018-04-14T23:02:24.797Z,61.30
2018-04-14T23:04:53.003Z,71.43
2018-04-14T23:07:20.440Z,66.13
2018-04-14T23:09:47.864Z,62.63
2018-04-14T23:12:15.303Z,68.73
2018-04-14T23:14:42.746Z,67.27
2018-04-14T23:17:10.185Z,64.57
2018-04-14T23:19:37.633Z,66.03
2018-04-14T23:22:05.071Z,60.40
2018-04-14T23:24:32.497Z,60.83
2018-04-14T23:26:59.937Z,64.37
2018-04-14T23:29:27.373Z,63.83
2018-04-14T23:31:54.809Z,59.83
2018-04-14T23:34:22.232Z,62.63
2018-04-14T23:36:50.432Z,62.47
2018-04-14T23:39:17.866Z,62.30
2018-04-14T23:41:46.080Z,62.37
2018-04-14T23:44:13.526Z,60.13
2018-04-14T23:46:40.967Z,60.60
2018-04-14T23:49:08.401Z,57.83
2018-04-14T23:51:36.606Z,58.20
2018-04-14T23:54:04.042Z,61.43
2018-04-14T23:56:31.474Z,64.00
2018-04-14T23:58:58.904Z,61.93
